Time,TemperatureF,DewpointF,PressureIn,WindDirection,WindDirectionDegrees,WindSpeedMPH,WindSpeedGustMPH,Humidity,HourlyPrecipIn,Conditions,Clouds,dailyrainin,SoftwareType,DateUTC
2014-04-16 00:23:00,28.0,18.0,30.26,West,279,0.0,2.0,67,0.00,,,0.12,,2014-04-16 04:23:00,
2014-04-16 00:44:00,28.0,18.0,30.27,West,271,0.0,5.0,66,0.00,,,0.04,,2014-04-16 04:44:00,
2014-04-16 00:53:00,28.0,18.0,30.27,WNW,294,0.0,1.0,65,0.00,,,0.04,,2014-04-16 04:53:00,
2014-04-16 01:22:00,27.0,18.0,30.27,WNW,284,0.0,0.0,67,0.00,,,0.04,,2014-04-16 05:22:00,
2014-04-16 01:53:00,27.0,17.0,30.27,NW,306,0.0,2.0,65,0.00,,,0.03,,2014-04-16 05:53:00,
2014-04-16 02:22:00,27.0,18.0,30.28,WNW,302,0.0,1.0,67,0.00,,,0.03,,2014-04-16 06:22:00,
2014-04-16 02:42:00,26.0,17.0,30.28,WNW,302,0.0,1.0,68,0.00,,,0.01,,2014-04-16 06:42:00,
2014-04-16 02:52:00,26.0,17.0,30.29,WNW,302,0.0,0.0,69,0.00,,,0.01,,2014-04-16 06:52:00,
2014-04-16 03:22:00,25.0,17.0,30.30,WNW,302,0.0,0.0,72,0.00,,,0.01,,2014-04-16 07:22:00,
2014-04-16 03:52:00,24.0,17.0,30.32,WNW,302,0.0,0.0,74,0.00,,,0.00,,2014-04-16 07:52:00,
2014-04-16 04:22:00,23.0,17.0,30.33,WNW,302,0.0,0.0,76,0.00,,,0.00,,2014-04-16 08:22:00,
2014-04-16 04:52:00,23.0,18.0,30.34,WNW,302,0.0,0.0,81,0.00,,,0.00,,2014-04-16 08:52:00,
2014-04-16 05:22:00,23.0,18.0,30.36,WNW,302,0.0,0.0,81,0.00,,,0.00,,2014-04-16 09:22:00,
2014-04-16 05:44:00,22.0,17.0,30.36,WNW,302,0.0,0.0,81,0.00,,,0.00,,2014-04-16 09:44:00,
2014-04-16 05:54:00,22.0,17.0,30.36,WNW,302,0.0,0.0,82,0.00,,,0.00,,2014-04-16 09:54:00,
2014-04-16 06:24:00,22.0,18.0,30.38,WNW,302,0.0,0.0,83,0.00,,,0.00,,2014-04-16 10:24:00,
2014-04-16 06:53:00,22.0,18.0,30.39,WNW,302,0.0,0.0,84,0.00,,,0.00,,2014-04-16 10:53:00,
2014-04-16 07:22:00,22.0,18.0,30.40,WNW,302,0.0,0.0,83,0.00,,,0.00,,2014-04-16 11:22:00,
2014-04-16 07:52:00,23.0,18.0,30.42,SE,134,0.0,0.0,81,0.00,,,0.00,,2014-04-16 11:52:00,
2014-04-16 08:22:00,26.0,19.0,30.42,SW,231,0.0,1.0,74,0.00,,,0.00,,2014-04-16 12:22:00,
2014-04-16 08:52:00,28.0,18.0,30.42,South,174,0.0,3.0,65,0.00,,,0.00,,2014-04-16 12:52:00,
2014-04-16 09:22:00,31.0,16.0,30.44,SSW,207,1.0,7.0,54,0.00,,,0.00,,2014-04-16 13:22:00,
2014-04-16 09:52:00,33.0,17.0,30.45,SSW,204,0.0,3.0,52,0.00,,,0.00,,2014-04-16 13:52:00,
2014-04-16 10:22:00,36.0,16.0,30.45,SSE,165,2.0,9.0,43,0.00,,,0.00,,2014-04-16 14:22:00,
2014-04-16 10:42:00,37.0,20.0,30.45,ESE,118,1.0,5.0,49,0.01,,,0.01,,2014-04-16 14:42:00,
2014-04-16 10:53:00,38.0,20.0,30.44,SSE,152,1.0,4.0,47,0.01,,,0.01,,2014-04-16 14:53:00,
2014-04-16 11:22:00,40.0,20.0,30.44,SW,228,1.0,5.0,44,0.01,,,0.01,,2014-04-16 15:22:00,
2014-04-16 12:24:00,41.0,22.0,30.44,SSW,208,0.0,8.0,47,0.00,,,0.01,,2014-04-16 16:24:00,
2014-04-16 12:43:00,43.0,23.0,30.44,WSW,241,3.0,8.0,45,0.00,,,0.01,,2014-04-16 16:43:00,
2014-04-16 12:54:00,43.0,23.0,30.44,SE,132,3.0,7.0,45,0.00,,,0.01,,2014-04-16 16:54:00,
2014-04-16 13:22:00,44.0,23.0,30.42,SSE,167,2.0,8.0,43,0.00,,,0.01,,2014-04-16 17:22:00,
2014-04-16 14:22:00,46.0,26.0,30.40,SSW,193,1.0,9.0,46,0.00,,,0.01,,2014-04-16 18:22:00,
2014-04-16 14:52:00,48.0,26.0,30.39,SW,226,1.0,7.0,42,0.00,,,0.01,,2014-04-16 18:52:00,
2014-04-16 15:22:00,49.0,28.0,30.38,ESE,118,1.0,7.0,44,0.00,,,0.01,,2014-04-16 19:22:00,
2014-04-16 16:22:00,51.0,28.0,30.36,SE,146,2.0,6.0,40,0.00,,,0.01,,2014-04-16 20:22:00,
2014-04-16 16:52:00,51.0,28.0,30.33,SE,146,1.0,8.0,40,0.00,,,0.01,,2014-04-16 20:52:00,
2014-04-16 17:11:00,51.0,28.0,30.33,SSE,155,1.0,5.0,40,0.00,,,0.01,,2014-04-16 21:11:00,
2014-04-16 17:22:00,50.0,27.0,30.32,South,172,1.0,9.0,40,0.00,,,0.01,,2014-04-16 21:22:00,
2014-04-16 17:54:00,51.0,28.0,30.32,ESE,116,0.0,5.0,40,0.00,,,0.01,,2014-04-16 21:54:00,
2014-04-16 18:23:00,51.0,26.0,30.30,South,179,1.0,7.0,38,0.00,,,0.01,,2014-04-16 22:23:00,
2014-04-16 18:53:00,48.0,25.0,30.29,South,190,1.0,6.0,40,0.00,,,0.01,,2014-04-16 22:53:00,
2014-04-16 19:22:00,48.0,26.0,30.29,South,181,1.0,5.0,42,0.00,,,0.01,,2014-04-16 23:22:00,
2014-04-16 19:42:00,47.0,26.0,30.28,SW,229,0.0,3.0,44,0.00,,,0.01,,2014-04-16 23:42:00,
2014-04-16 19:52:00,47.0,26.0,30.28,WSW,240,0.0,3.0,44,0.00,,,0.01,,2014-04-16 23:52:00,
2014-04-16 20:22:00,45.0,26.0,30.28,SSE,167,0.0,2.0,47,0.00,,,0.01,,2014-04-17 00:22:00,
2014-04-16 20:42:00,45.0,27.0,30.28,SSW,193,0.0,2.0,48,0.00,,,0.01,,2014-04-17 00:42:00,
2014-04-16 20:52:00,44.0,27.0,30.28,SSW,211,0.0,1.0,50,0.00,,,0.01,,2014-04-17 00:52:00,
2014-04-16 21:22:00,42.0,27.0,30.28,SSW,211,0.0,1.0,54,0.00,,,0.01,,2014-04-17 01:22:00,
2014-04-16 21:52:00,42.0,26.0,30.28,SW,217,0.0,2.0,53,0.00,,,0.01,,2014-04-17 01:52:00,
2014-04-16 22:22:00,42.0,27.0,30.28,SW,221,0.0,1.0,55,0.00,,,0.01,,2014-04-17 02:22:00,